ESSB/BMA METAR and TAF weather

Enter ICAO airport designator
Station Type Date Time Source
ESSB METAR 2019/02/23 02:50 UTC NOAA

ESSB 230250Z AUTO 25011KT 9999 OVC011/// 01/M01 Q1035


Station Type Date Time Source
ESSB Decoded METAR 2019/02/23 02:50 UTC NOAA

Stockholm / Bromma, Sweden (ESSB) 59-21N 017-57E 14M
Feb 22, 2019 - 09:50 PM EST / 2019.02.23 0250 UTC
Wind: from the WSW (250 degrees) at 13 MPH (11 KT):0
Visibility: greater than 7 mile(s):0
Sky conditions: overcast
Temperature: 33 F (1 C)
Windchill: 23 F (-5 C):1
Dew Point: 30 F (-1 C)
Relative Humidity: 86%
Pressure (altimeter): 30.56 in. Hg (1035 hPa)
ob: ESSB 230250Z AUTO 25011KT 9999 OVC011/// 01/M01 Q1035
cycle: 3

Station Type Date Time Source
ESSB TAF 2017/03/27 06:35 UTC NOAA

TAF ESSB 270530Z 2706/2724 27008KT CAVOK
BECMG 2710/2713 29015G25KT


Example: see airport list